Main page
METAR-TAF:

METAR-TAF

Airports :

Tiree Airport

Tiree, Scotland

latitude: 56-30N, longitude: 006-53W, elevation: 12 m

Current weather observation

The report was made 25 minutes ago, at 05:20 UTC
Wind 4 kt from the South
Temperature 12°C
Humidity 94%
Pressure 1011 hPa
Visibility 10 km or more

METAR: EGPU 170520Z AUTO 18004KT 9999 BKN048/// 12/11 Q1011

Time: 06:45 (05:45 UTC)

Forecast

The report was made 47 minutes ago, at 04:58 UTC
Forecast valid from 17 at 06 UTC to 17 at 15 UTC
Wind 9 kt from the West/Southwest
Visibility 10 km or more
Few clouds at a height of 3500 ft
Probability 30% :
Temporary
from 17 at 06 UTC to 17 at 15 UTC
Visibility: 7000 m
rain showers

TAF: EGPU 170458Z 1706/1715 25009KT 9999 FEW035 PROB30 TEMPO 1706/1715 7000 SHRA

Weather observations and forecasts of more than 4000 airports (METAR and TAF reports).

The available stations are represented by yellow and red dots on the map.

Hover mouse over dot to see the name of the station.

Then click to see weather observations and forecasts.

To change the map : click on the green buttons with a black cross to zoom in, on the green button with a dash to zoom out, or on the green arrows for adjacent maps.


METAR-TAF: